createdAt,value
2019-01-16T00:00:19.051Z,88.82
2019-01-16T00:01:19.028Z,88.82
2019-01-16T00:02:19.018Z,89.23
2019-01-16T00:03:19.041Z,89.13
2019-01-16T00:04:19.013Z,88.96
2019-01-16T00:05:18.993Z,88.82
2019-01-16T00:06:18.975Z,89.44
2019-01-16T00:07:18.969Z,89.34
2019-01-16T00:08:18.969Z,89.85
2019-01-16T00:09:19.009Z,89.54
2019-01-16T00:10:18.935Z,89.23
2019-01-16T00:11:18.921Z,89.54
2019-01-16T00:12:18.920Z,89.34
2019-01-16T00:13:18.901Z,89.13
2019-01-16T00:14:18.912Z,89.79
2019-01-16T00:15:18.890Z,89.54
2019-01-16T00:16:18.870Z,89.54
2019-01-16T00:17:18.854Z,89.65
2019-01-16T00:18:18.837Z,89.38
2019-01-16T00:19:18.883Z,88.96
2019-01-16T00:20:18.823Z,88.92
2019-01-16T00:21:18.814Z,89.13
2019-01-16T00:22:18.819Z,88.72
2019-01-16T00:23:18.789Z,88.92
2019-01-16T00:24:18.771Z,89.13
2019-01-16T00:25:18.808Z,88.62
2019-01-16T00:26:18.757Z,88.72
2019-01-16T00:27:18.772Z,88.82
2019-01-16T00:28:18.728Z,89.03
2019-01-16T00:29:18.771Z,88.92
2019-01-16T00:30:18.707Z,88.86
2019-01-16T00:31:18.693Z,88.82
2019-01-16T00:32:18.685Z,88.62
2019-01-16T00:33:18.693Z,88.92
2019-01-16T00:34:18.680Z,88.82
2019-01-16T00:35:18.708Z,88.72
2019-01-16T00:36:18.646Z,88.62
2019-01-16T00:37:18.638Z,88.51
2019-01-16T00:38:18.642Z,88.41
2019-01-16T00:39:18.611Z,88.72
2019-01-16T00:40:18.606Z,88.51
2019-01-16T00:41:18.632Z,88.31
2019-01-16T00:42:18.575Z,88.51
2019-01-16T00:43:18.638Z,88.51
2019-01-16T00:44:18.570Z,88.41
2019-01-16T00:45:18.595Z,88.51
2019-01-16T00:46:18.563Z,88.51
2019-01-16T00:47:18.532Z,88.62
2019-01-16T00:48:24.521Z,88.31
2019-01-16T00:49:19.524Z,88.41
2019-01-16T00:50:18.528Z,88.17
2019-01-16T00:51:18.522Z,88.51
2019-01-16T00:52:18.474Z,88.47
2019-01-16T00:53:18.451Z,88.31
2019-01-16T00:54:18.442Z,88.57
2019-01-16T00:55:18.466Z,88.41
2019-01-16T00:56:18.449Z,88.17
2019-01-16T00:57:18.412Z,88.20
2019-01-16T00:58:18.398Z,88.17
2019-01-16T00:59:18.410Z,88.20
2019-01-16T01:00:18.380Z,88.06
2019-01-16T01:01:18.396Z,88.31
2019-01-16T01:02:18.355Z,88.47
2019-01-16T01:03:18.379Z,88.17
2019-01-16T01:04:18.327Z,88.06
2019-01-16T01:05:18.415Z,88.06
2019-01-16T01:06:18.317Z,88.26
2019-01-16T01:07:18.337Z,88.47
2019-01-16T01:08:18.311Z,88.06
2019-01-16T01:09:18.283Z,88.57
2019-01-16T01:10:18.302Z,88.47
2019-01-16T01:11:18.254Z,88.37
2019-01-16T01:12:18.250Z,88.57
2019-01-16T01:13:18.323Z,88.78
2019-01-16T01:14:18.260Z,88.47
2019-01-16T01:15:18.219Z,88.26
2019-01-16T01:16:18.208Z,88.26
2019-01-16T01:17:18.212Z,88.26
2019-01-16T01:18:18.202Z,88.68
2019-01-16T01:19:18.171Z,88.57
2019-01-16T01:20:18.235Z,88.68
2019-01-16T01:21:18.153Z,88.99
2019-01-16T01:22:18.131Z,88.78
2019-01-16T01:23:18.131Z,88.78
2019-01-16T01:24:18.132Z,88.68
2019-01-16T01:25:18.121Z,88.64
2019-01-16T01:26:18.146Z,88.74
2019-01-16T01:27:18.091Z,88.89
2019-01-16T01:28:18.098Z,89.09
2019-01-16T01:29:18.061Z,88.78
2019-01-16T01:30:18.073Z,89.40
2019-01-16T01:31:18.048Z,89.29
2019-01-16T01:32:18.078Z,88.95
2019-01-16T01:33:18.078Z,89.40
2019-01-16T01:34:17.996Z,89.50
2019-01-16T01:35:18.013Z,89.50
2019-01-16T01:36:17.990Z,89.61
2019-01-16T01:37:18.019Z,89.40
2019-01-16T01:38:17.963Z,89.50
2019-01-16T01:39:17.950Z,89.46
2019-01-16T01:40:17.957Z,89.61
2019-01-16T01:41:17.939Z,89.50
2019-01-16T01:42:17.947Z,89.61
2019-01-16T01:43:17.901Z,89.56
2019-01-16T01:44:17.895Z,89.50
2019-01-16T01:45:17.899Z,89.29
2019-01-16T01:46:17.875Z,89.61
2019-01-16T01:47:17.878Z,89.25
2019-01-16T01:48:17.885Z,89.15
2019-01-16T01:49:17.850Z,89.56
2019-01-16T01:50:18.063Z,89.15
2019-01-16T01:51:17.810Z,89.71
2019-01-16T01:52:17.829Z,89.29
2019-01-16T01:53:17.837Z,89.29
2019-01-16T01:54:17.791Z,89.09
2019-01-16T01:55:17.771Z,89.40
2019-01-16T01:56:17.772Z,88.95
2019-01-16T01:57:17.764Z,88.78
2019-01-16T01:58:17.751Z,89.09
2019-01-16T01:59:17.780Z,88.78
2019-01-16T02:00:17.723Z,88.68
2019-01-16T02:01:17.714Z,88.74
2019-01-16T02:02:17.706Z,88.68
2019-01-16T02:03:17.687Z,88.64
2019-01-16T02:04:17.715Z,88.64
2019-01-16T02:05:17.668Z,88.43
2019-01-16T02:06:17.713Z,88.53
2019-01-16T02:07:17.675Z,88.43
2019-01-16T02:08:17.638Z,88.33
2019-01-16T02:09:17.629Z,88.12
2019-01-16T02:10:17.641Z,88.23
2019-01-16T02:11:17.614Z,88.23
2019-01-16T02:12:17.630Z,88.43
2019-01-16T02:13:17.582Z,88.12
2019-01-16T02:14:17.566Z,88.12
2019-01-16T02:15:17.553Z,88.53
2019-01-16T02:16:17.615Z,88.23
2019-01-16T02:17:17.572Z,88.33
2019-01-16T02:18:17.561Z,88.43
2019-01-16T02:19:17.518Z,88.53
2019-01-16T02:20:17.530Z,88.33
2019-01-16T02:21:17.489Z,88.43
2019-01-16T02:22:17.521Z,88.43
2019-01-16T02:23:17.467Z,88.53
2019-01-16T02:24:17.527Z,88.64
2019-01-16T02:25:17.472Z,88.74
2019-01-16T02:26:17.466Z,88.33
2019-01-16T02:27:17.426Z,88.33
2019-01-16T02:28:17.424Z,88.78
2019-01-16T02:29:17.408Z,88.53
2019-01-16T02:30:17.439Z,88.84
2019-01-16T02:31:17.392Z,88.64
2019-01-16T02:32:17.385Z,88.43
2019-01-16T02:33:17.374Z,88.95
2019-01-16T02:34:17.378Z,88.68
2019-01-16T02:35:17.403Z,88.64
2019-01-16T02:36:17.333Z,88.99
2019-01-16T02:37:17.339Z,88.95
2019-01-16T02:38:17.302Z,89.05
2019-01-16T02:39:17.305Z,88.84
2019-01-16T02:40:17.282Z,88.84
2019-01-16T02:41:17.317Z,88.84
2019-01-16T02:42:17.265Z,88.74
2019-01-16T02:43:17.271Z,88.53
2019-01-16T02:44:17.246Z,88.95
2019-01-16T02:45:17.297Z,88.95
2019-01-16T02:46:17.256Z,89.25
2019-01-16T02:47:17.206Z,89.67
2019-01-16T02:48:17.212Z,89.56
2019-01-16T02:49:17.220Z,89.56
2019-01-16T02:50:17.173Z,89.46
2019-01-16T02:51:17.160Z,89.56
2019-01-16T02:52:17.144Z,89.87
2019-01-16T02:53:17.364Z,90.08
2019-01-16T02:54:17.144Z,90.22
2019-01-16T02:55:17.159Z,90.08
2019-01-16T02:56:17.108Z,90.08
2019-01-16T02:57:17.114Z,90.22
2019-01-16T02:58:17.115Z,90.18
2019-01-16T02:59:17.082Z,90.12
2019-01-16T03:00:17.070Z,90.12
2019-01-16T03:01:17.098Z,90.53
2019-01-16T03:02:17.046Z,90.53
2019-01-16T03:03:17.077Z,90.43
2019-01-16T03:04:17.056Z,90.22
2019-01-16T03:05:17.013Z,90.18
2019-01-16T03:06:17.025Z,89.81
2019-01-16T03:07:16.979Z,90.53
2019-01-16T03:08:16.988Z,90.28
2019-01-16T03:09:16.994Z,90.33
2019-01-16T03:10:16.956Z,90.12
2019-01-16T03:11:16.952Z,90.22
2019-01-16T03:12:16.937Z,90.33
2019-01-16T03:13:16.957Z,90.22
2019-01-16T03:14:16.909Z,90.73
2019-01-16T03:15:16.932Z,90.43
2019-01-16T03:16:16.891Z,90.73
2019-01-16T03:17:16.884Z,90.39
2019-01-16T03:18:16.901Z,90.53
2019-01-16T03:19:16.859Z,91.15
2019-01-16T03:20:16.863Z,91.05
2019-01-16T03:21:16.860Z,91.31
2019-01-16T03:22:16.826Z,91.25
2019-01-16T03:23:16.813Z,91.66
2019-01-16T03:24:17.754Z,91.77
2019-01-16T03:25:16.799Z,91.46
2019-01-16T03:26:16.776Z,92.29
2019-01-16T03:27:16.777Z,92.29
2019-01-16T03:28:16.825Z,92.18
2019-01-16T03:29:16.741Z,92.18
2019-01-16T03:30:16.790Z,91.97
2019-01-16T03:31:16.731Z,91.81
2019-01-16T03:32:16.742Z,91.97
2019-01-16T03:33:16.717Z,91.87
2019-01-16T03:34:16.719Z,92.02
2019-01-16T03:35:16.687Z,91.97
2019-01-16T03:36:16.702Z,92.12
2019-01-16T03:37:16.662Z,92.33
2019-01-16T03:38:16.667Z,92.22
2019-01-16T03:39:16.678Z,92.94
2019-01-16T03:40:16.625Z,92.94
2019-01-16T03:41:16.608Z,93.11
2019-01-16T03:42:16.636Z,93.15
2019-01-16T03:43:16.595Z,92.94
2019-01-16T03:44:16.630Z,92.53
2019-01-16T03:45:16.578Z,92.12
2019-01-16T03:46:16.560Z,92.12
2019-01-16T03:47:16.575Z,92.63
2019-01-16T03:48:16.538Z,92.12
2019-01-16T03:49:16.589Z,92.74
2019-01-16T03:50:16.517Z,92.53
2019-01-16T03:51:16.503Z,92.63
2019-01-16T03:52:16.514Z,92.53
2019-01-16T03:53:16.486Z,92.63
2019-01-16T03:54:16.474Z,92.22
2019-01-16T03:55:16.500Z,92.02
2019-01-16T03:56:16.450Z,92.02
2019-01-16T03:57:16.499Z,91.91
2019-01-16T03:58:16.422Z,92.02
2019-01-16T03:59:16.417Z,92.22
2019-01-16T04:00:16.424Z,92.02
2019-01-16T04:01:16.453Z,92.02
2019-01-16T04:02:16.379Z,92.18
2019-01-16T04:03:16.506Z,91.71
2019-01-16T04:04:16.363Z,92.43
2019-01-16T04:05:16.352Z,92.02
2019-01-16T04:06:16.352Z,91.91
2019-01-16T04:07:16.403Z,92.22
2019-01-16T04:08:16.367Z,91.71
2019-01-16T04:09:16.302Z,91.19
2019-01-16T04:10:16.339Z,92.12
2019-01-16T04:11:16.285Z,91.60
2019-01-16T04:12:16.285Z,91.71
2019-01-16T04:13:16.280Z,91.60
2019-01-16T04:14:16.307Z,91.71
2019-01-16T04:15:16.250Z,91.60
2019-01-16T04:16:16.235Z,91.50
2019-01-16T04:17:16.228Z,91.50
2019-01-16T04:18:16.205Z,91.19
2019-01-16T04:19:21.659Z,91.30
2019-01-16T04:20:17.221Z,91.30
2019-01-16T04:21:16.180Z,90.88
2019-01-16T04:22:16.161Z,90.88
2019-01-16T04:23:16.162Z,91.30
2019-01-16T04:24:16.185Z,90.67
2019-01-16T04:25:16.138Z,90.78
2019-01-16T04:26:16.129Z,90.88
2019-01-16T04:27:16.116Z,90.78
2019-01-16T04:28:16.135Z,90.06
2019-01-16T04:29:16.101Z,90.26
2019-01-16T04:30:16.084Z,90.16
2019-01-16T04:31:16.061Z,90.26
2019-01-16T04:32:16.102Z,90.16
2019-01-16T04:33:16.048Z,90.06
2019-01-16T04:34:16.045Z,90.06
2019-01-16T04:35:16.079Z,89.23
2019-01-16T04:36:16.024Z,89.81
2019-01-16T04:37:16.002Z,90.26
2019-01-16T04:38:16.019Z,89.44
2019-01-16T04:39:15.989Z,89.54
2019-01-16T04:40:16.012Z,89.95
2019-01-16T04:41:16.038Z,89.95
2019-01-16T04:42:15.997Z,90.06
2019-01-16T04:43:16.037Z,89.44
2019-01-16T04:44:15.970Z,89.34
2019-01-16T04:45:15.940Z,89.65
2019-01-16T04:46:15.929Z,89.75
2019-01-16T04:47:15.996Z,89.23
2019-01-16T04:48:15.878Z,88.92
2019-01-16T04:49:15.928Z,88.72
2019-01-16T04:50:15.859Z,89.03
2019-01-16T04:51:15.846Z,88.82
2019-01-16T04:52:15.887Z,88.92
2019-01-16T04:53:15.829Z,88.92
2019-01-16T04:54:15.855Z,89.03
2019-01-16T04:55:15.819Z,88.92
2019-01-16T04:56:15.849Z,88.82
2019-01-16T04:57:15.807Z,88.62
2019-01-16T04:58:15.777Z,88.41
2019-01-16T04:59:15.797Z,88.72
2019-01-16T05:00:15.790Z,88.51
2019-01-16T05:01:15.747Z,88.41
2019-01-16T05:02:15.735Z,88.31
2019-01-16T05:03:15.716Z,88.51
2019-01-16T05:04:15.716Z,88.31
2019-01-16T05:05:15.736Z,88.51
2019-01-16T05:06:15.676Z,88.51
2019-01-16T05:07:15.681Z,88.20
2019-01-16T05:08:15.656Z,87.90
2019-01-16T05:09:15.677Z,88.10
2019-01-16T05:10:15.664Z,88.20
2019-01-16T05:11:15.637Z,87.69
2019-01-16T05:12:15.615Z,87.79
2019-01-16T05:13:15.648Z,87.99
2019-01-16T05:14:15.596Z,87.99
2019-01-16T05:15:15.606Z,88.41
2019-01-16T05:16:15.609Z,87.99
2019-01-16T05:17:15.557Z,87.90
2019-01-16T05:18:15.548Z,88.04
2019-01-16T05:19:15.553Z,87.69
2019-01-16T05:20:15.524Z,87.99
2019-01-16T05:21:15.527Z,87.69
2019-01-16T05:22:15.579Z,87.42
2019-01-16T05:23:15.492Z,87.38
2019-01-16T05:24:15.492Z,87.59
2019-01-16T05:25:15.478Z,88.24
2019-01-16T05:26:15.462Z,87.99
2019-01-16T05:27:30.011Z,87.69
2019-01-16T05:28:15.499Z,88.20
2019-01-16T05:29:15.423Z,87.79
2019-01-16T05:30:15.430Z,87.38
2019-01-16T05:31:15.409Z,87.27
2019-01-16T05:32:15.402Z,87.38
2019-01-16T05:33:15.390Z,87.38
2019-01-16T05:34:15.412Z,87.11
2019-01-16T05:35:15.365Z,86.97
2019-01-16T05:36:15.362Z,86.66
2019-01-16T05:37:15.353Z,86.24
2019-01-16T05:38:15.336Z,86.04
2019-01-16T05:39:15.318Z,86.04
2019-01-16T05:40:15.347Z,86.35
2019-01-16T05:41:15.300Z,86.15
2019-01-16T05:42:15.292Z,85.83
2019-01-16T05:43:15.276Z,85.83
2019-01-16T05:44:15.267Z,85.42
2019-01-16T05:45:15.310Z,84.59
2019-01-16T05:46:15.240Z,85.11
2019-01-16T05:47:15.228Z,84.59
2019-01-16T05:48:15.231Z,85.01
2019-01-16T05:49:15.209Z,84.49
2019-01-16T05:50:15.209Z,85.11
2019-01-16T05:51:15.259Z,84.80
2019-01-16T05:52:15.181Z,84.08
2019-01-16T05:53:15.214Z,84.08
2019-01-16T05:54:15.164Z,84.08
2019-01-16T05:55:15.158Z,83.87
2019-01-16T05:56:15.143Z,83.87
2019-01-16T05:57:15.163Z,83.15
2019-01-16T05:58:15.120Z,83.56
2019-01-16T05:59:15.100Z,83.22
2019-01-16T06:00:15.091Z,83.26
2019-01-16T06:01:15.086Z,83.05
2019-01-16T06:02:15.105Z,83.36
2019-01-16T06:03:15.056Z,83.56
2019-01-16T06:04:15.057Z,83.36
2019-01-16T06:05:15.167Z,83.05
2019-01-16T06:06:15.029Z,82.84
2019-01-16T06:07:15.012Z,82.43
2019-01-16T06:08:15.055Z,82.02
2019-01-16T06:09:17.013Z,82.12
2019-01-16T06:10:15.032Z,82.12
2019-01-16T06:11:14.970Z,82.33
2019-01-16T06:12:14.961Z,82.33
2019-01-16T06:13:14.998Z,82.43
2019-01-16T06:14:14.944Z,82.74
2019-01-16T06:15:14.919Z,82.23
2019-01-16T06:16:14.913Z,82.12
2019-01-16T06:17:14.911Z,82.43
2019-01-16T06:18:14.916Z,82.02
2019-01-16T06:19:14.928Z,81.71
2019-01-16T06:20:14.908Z,81.71
2019-01-16T06:21:14.857Z,81.81
2019-01-16T06:22:14.860Z,81.81
2019-01-16T06:23:14.848Z,82.12
2019-01-16T06:24:14.834Z,82.02
2019-01-16T06:25:14.893Z,81.92
2019-01-16T06:26:14.798Z,81.61
2019-01-16T06:27:14.787Z,81.71
2019-01-16T06:28:14.788Z,81.61
2019-01-16T06:29:14.765Z,81.92
2019-01-16T06:30:14.811Z,81.81
2019-01-16T06:31:14.773Z,81.61
2019-01-16T06:32:14.762Z,81.81
2019-01-16T06:33:14.725Z,81.61
2019-01-16T06:34:14.730Z,81.92
2019-01-16T06:35:14.741Z,81.75
2019-01-16T06:36:14.768Z,81.81
2019-01-16T06:37:14.726Z,81.92
2019-01-16T06:38:14.680Z,81.85
2019-01-16T06:39:14.659Z,81.71
2019-01-16T06:40:14.699Z,81.51
2019-01-16T06:41:14.692Z,81.81
2019-01-16T06:42:14.635Z,81.92
2019-01-16T06:43:15.524Z,82.02
2019-01-16T06:44:14.853Z,82.43
2019-01-16T06:45:14.603Z,82.23
2019-01-16T06:46:14.578Z,82.06
2019-01-16T06:47:14.625Z,82.33
2019-01-16T06:48:14.566Z,82.57
2019-01-16T06:49:14.544Z,82.57
2019-01-16T06:50:16.564Z,82.43
2019-01-16T06:51:14.540Z,83.50
2019-01-16T06:52:14.512Z,83.40
2019-01-16T06:53:14.562Z,83.91
2019-01-16T06:54:14.508Z,83.50
2019-01-16T06:55:14.492Z,83.81
2019-01-16T06:56:14.483Z,83.61
2019-01-16T06:57:14.512Z,83.61
2019-01-16T06:58:14.447Z,84.22
2019-01-16T06:59:14.447Z,83.81
2019-01-16T07:00:14.484Z,83.91
2019-01-16T07:01:14.430Z,84.12
2019-01-16T07:02:14.415Z,83.81
2019-01-16T07:03:14.458Z,84.01
2019-01-16T07:04:14.419Z,84.64
2019-01-16T07:05:14.369Z,84.12
2019-01-16T07:06:14.363Z,84.12
2019-01-16T07:07:14.382Z,83.71
2019-01-16T07:08:14.413Z,83.81
2019-01-16T07:09:50.181Z,84.12
2019-01-16T07:10:14.326Z,83.61
2019-01-16T07:11:15.032Z,84.01
2019-01-16T07:12:14.303Z,84.12
2019-01-16T07:13:14.291Z,84.53
2019-01-16T07:14:14.287Z,84.01
2019-01-16T07:15:14.285Z,84.53
2019-01-16T07:16:14.264Z,83.61
2019-01-16T07:17:14.276Z,83.61
2019-01-16T07:18:14.231Z,83.91
2019-01-16T07:19:14.218Z,83.81
2019-01-16T07:20:14.211Z,84.43
2019-01-16T07:21:14.219Z,84.01
2019-01-16T07:22:14.214Z,84.01
2019-01-16T07:23:14.172Z,84.33
2019-01-16T07:24:14.227Z,84.43
2019-01-16T07:25:14.161Z,84.12
2019-01-16T07:26:14.158Z,83.95
2019-01-16T07:27:14.132Z,83.71
2019-01-16T07:28:14.140Z,84.01
2019-01-16T07:29:14.114Z,84.43
2019-01-16T07:30:14.118Z,83.61
2019-01-16T07:31:14.087Z,83.71
2019-01-16T07:32:14.093Z,84.12
2019-01-16T07:33:14.077Z,83.71
2019-01-16T07:34:14.076Z,83.71
2019-01-16T07:35:14.150Z,84.01
2019-01-16T07:36:14.081Z,84.01
2019-01-16T07:37:14.038Z,83.81
2019-01-16T07:38:14.322Z,83.91
2019-01-16T07:39:14.007Z,84.22
2019-01-16T07:40:13.993Z,83.81
2019-01-16T07:41:13.992Z,84.01
2019-01-16T07:42:14.036Z,83.81
2019-01-16T07:43:13.978Z,83.91
2019-01-16T07:44:13.974Z,84.12
2019-01-16T07:45:13.937Z,83.71
2019-01-16T07:46:13.944Z,83.91
2019-01-16T07:47:13.917Z,83.71
2019-01-16T07:48:13.925Z,83.61
2019-01-16T07:49:13.892Z,83.29
2019-01-16T07:50:17.387Z,83.91
2019-01-16T07:51:13.912Z,84.12
2019-01-16T07:52:13.861Z,84.12
2019-01-16T07:53:13.860Z,83.81
2019-01-16T07:54:13.845Z,84.53
2019-01-16T07:55:13.833Z,84.64
2019-01-16T07:56:14.566Z,83.91
2019-01-16T07:57:13.814Z,83.61
2019-01-16T07:58:13.798Z,83.91
2019-01-16T07:59:13.777Z,84.12
2019-01-16T08:00:13.775Z,83.91
2019-01-16T08:01:13.793Z,83.91
2019-01-16T08:02:13.746Z,84.22
2019-01-16T08:03:13.741Z,83.40
2019-01-16T08:04:13.735Z,83.29
2019-01-16T08:05:13.728Z,83.29
2019-01-16T08:06:13.714Z,83.40
2019-01-16T08:07:13.719Z,83.09
2019-01-16T08:08:13.703Z,83.29
2019-01-16T08:09:13.673Z,83.09
2019-01-16T08:10:13.676Z,82.98
2019-01-16T08:11:13.649Z,83.09
2019-01-16T08:12:13.650Z,83.40
2019-01-16T08:13:13.657Z,83.71
2019-01-16T08:14:13.628Z,84.33
2019-01-16T08:15:13.626Z,83.71
2019-01-16T08:16:13.608Z,83.29
2019-01-16T08:17:13.605Z,83.40
2019-01-16T08:18:13.589Z,83.91
2019-01-16T08:19:13.558Z,84.33
2019-01-16T08:20:13.547Z,83.91
2019-01-16T08:21:13.542Z,84.29
2019-01-16T08:22:13.555Z,83.77
2019-01-16T08:23:13.516Z,83.77
2019-01-16T08:24:13.512Z,83.29
2019-01-16T08:25:13.499Z,83.81
2019-01-16T08:26:13.481Z,84.01
2019-01-16T08:27:13.481Z,83.61
2019-01-16T08:28:13.481Z,83.09
2019-01-16T08:29:13.478Z,83.50
2019-01-16T08:30:13.452Z,83.61
2019-01-16T08:31:13.471Z,83.81
2019-01-16T08:32:13.421Z,84.12
2019-01-16T08:33:13.408Z,83.71
2019-01-16T08:34:14.037Z,83.91
2019-01-16T08:35:13.391Z,83.61
2019-01-16T08:36:13.389Z,83.19
2019-01-16T08:37:13.397Z,82.98
2019-01-16T08:38:13.373Z,83.40
2019-01-16T08:39:13.358Z,83.19
2019-01-16T08:40:13.356Z,83.40
2019-01-16T08:41:13.324Z,83.40
2019-01-16T08:42:13.313Z,83.09
2019-01-16T08:43:13.351Z,82.68
2019-01-16T08:44:14.012Z,82.89
2019-01-16T08:45:13.283Z,82.64
2019-01-16T08:46:13.275Z,82.98
2019-01-16T08:47:13.259Z,82.98
2019-01-16T08:48:13.260Z,82.57
2019-01-16T08:49:13.305Z,82.57
2019-01-16T08:50:13.230Z,82.33
2019-01-16T08:51:13.209Z,82.43
2019-01-16T08:52:13.201Z,82.64
2019-01-16T08:53:13.206Z,82.57
2019-01-16T08:54:13.198Z,82.84
2019-01-16T08:55:14.083Z,83.19
2019-01-16T08:56:13.171Z,82.54
2019-01-16T08:57:13.146Z,82.47
2019-01-16T08:58:20.047Z,82.84
2019-01-16T08:59:13.127Z,82.54
2019-01-16T09:00:13.119Z,82.33
2019-01-16T09:01:13.142Z,81.92
2019-01-16T09:02:13.122Z,82.74
2019-01-16T09:03:13.072Z,82.12
2019-01-16T09:04:13.066Z,82.43
2019-01-16T09:05:13.134Z,82.23
2019-01-16T09:06:13.065Z,82.47
2019-01-16T09:07:13.096Z,82.47
2019-01-16T09:08:13.020Z,82.47
2019-01-16T09:09:13.016Z,82.54
2019-01-16T09:10:13.012Z,82.54
2019-01-16T09:11:13.000Z,82.54
2019-01-16T09:12:13.008Z,82.33
2019-01-16T09:13:12.998Z,82.33
2019-01-16T09:14:12.996Z,81.92
2019-01-16T09:15:12.966Z,81.92
2019-01-16T09:16:12.937Z,82.33
2019-01-16T09:17:12.928Z,82.43
2019-01-16T09:18:12.933Z,81.92
2019-01-16T09:19:12.902Z,82.54
2019-01-16T09:20:12.903Z,82.43
2019-01-16T09:21:12.900Z,82.74
2019-01-16T09:22:12.875Z,82.64
2019-01-16T09:23:13.038Z,83.05
2019-01-16T09:24:12.875Z,83.36
2019-01-16T09:25:12.839Z,82.84
2019-01-16T09:26:12.830Z,83.47
2019-01-16T09:27:12.823Z,83.36
2019-01-16T09:28:12.848Z,83.36
2019-01-16T09:29:12.806Z,83.47
2019-01-16T09:30:12.803Z,83.15
2019-01-16T09:31:12.822Z,83.67
2019-01-16T09:32:12.763Z,83.87
2019-01-16T09:33:12.756Z,83.56
2019-01-16T09:34:12.771Z,83.47
2019-01-16T09:35:12.761Z,83.26
2019-01-16T09:36:12.749Z,83.47
2019-01-16T09:37:12.716Z,83.77
2019-01-16T09:38:12.729Z,83.77
2019-01-16T09:39:12.688Z,83.26
2019-01-16T09:40:12.702Z,83.47
2019-01-16T09:41:12.679Z,83.56
2019-01-16T09:42:12.740Z,83.26
2019-01-16T09:43:12.644Z,83.26
2019-01-16T09:44:12.635Z,83.36
2019-01-16T09:45:12.637Z,83.47
2019-01-16T09:46:12.657Z,83.53
2019-01-16T09:47:12.787Z,83.05
2019-01-16T09:48:12.688Z,83.15
2019-01-16T09:49:12.698Z,83.05
2019-01-16T09:50:12.573Z,83.36
2019-01-16T09:51:12.585Z,83.56
2019-01-16T09:52:12.546Z,83.77
2019-01-16T09:53:12.561Z,83.47
2019-01-16T09:54:12.536Z,83.56
2019-01-16T09:55:12.538Z,83.87
2019-01-16T09:56:12.537Z,83.87
2019-01-16T09:57:12.499Z,84.19
2019-01-16T09:58:12.519Z,84.49
2019-01-16T09:59:12.476Z,84.29
2019-01-16T10:00:12.463Z,84.33
2019-01-16T10:01:12.703Z,85.01
2019-01-16T10:02:12.486Z,84.53
2019-01-16T10:03:12.474Z,85.15
2019-01-16T10:04:12.448Z,84.94
2019-01-16T10:05:12.442Z,85.77
2019-01-16T10:06:12.410Z,85.46
2019-01-16T10:07:12.412Z,85.87
2019-01-16T10:08:12.388Z,86.02
2019-01-16T10:09:12.368Z,85.97
2019-01-16T10:10:12.351Z,86.02
2019-01-16T10:11:12.402Z,86.29
2019-01-16T10:12:12.514Z,86.02
2019-01-16T10:13:12.342Z,86.08
2019-01-16T10:14:12.316Z,85.77
2019-01-16T10:15:12.310Z,85.36
2019-01-16T10:16:12.279Z,85.19
2019-01-16T10:17:12.290Z,85.81
2019-01-16T10:18:12.266Z,85.91
2019-01-16T10:19:12.269Z,85.50
2019-01-16T10:20:12.253Z,85.50
2019-01-16T10:21:12.228Z,84.67
2019-01-16T10:22:12.217Z,85.71
2019-01-16T10:23:12.243Z,85.19
2019-01-16T10:24:12.190Z,85.19
2019-01-16T10:25:12.205Z,85.39
2019-01-16T10:26:12.189Z,84.67
2019-01-16T10:27:12.161Z,84.67
2019-01-16T10:28:12.156Z,83.95
2019-01-16T10:29:12.157Z,84.67
2019-01-16T10:30:12.128Z,84.78
2019-01-16T10:31:12.123Z,84.88
2019-01-16T10:32:12.113Z,84.99
2019-01-16T10:33:12.100Z,84.67
2019-01-16T10:34:12.091Z,84.47
2019-01-16T10:35:12.090Z,84.67
2019-01-16T10:36:12.068Z,84.47
2019-01-16T10:37:12.104Z,84.92
2019-01-16T10:38:12.053Z,84.47
2019-01-16T10:39:12.046Z,84.27
2019-01-16T10:40:12.033Z,84.36
2019-01-16T10:41:12.008Z,84.16
2019-01-16T10:42:12.009Z,84.57
2019-01-16T10:43:12.003Z,83.95
2019-01-16T10:47:48.550Z,83.75
2019-01-16T10:49:03.274Z,84.16
2019-01-16T10:50:03.253Z,83.85
2019-01-16T10:51:03.414Z,84.06
2019-01-16T10:51:48.544Z,83.64
2019-01-16T10:52:48.495Z,83.64
2019-01-16T10:53:48.512Z,83.75
2019-01-16T10:54:48.466Z,83.44
2019-01-16T10:55:48.453Z,83.64
2019-01-16T10:56:48.449Z,83.44
2019-01-16T10:57:48.431Z,83.33
2019-01-16T10:58:48.425Z,83.13
2019-01-16T10:59:48.441Z,83.13
2019-01-16T11:00:48.401Z,83.33
2019-01-16T11:01:48.418Z,83.23
2019-01-16T11:02:48.380Z,83.44
2019-01-16T11:03:48.367Z,83.03
2019-01-16T11:04:48.369Z,82.71
2019-01-16T11:05:48.378Z,83.19
2019-01-16T11:06:48.330Z,82.89
2019-01-16T11:07:48.335Z,82.57
2019-01-16T11:08:48.311Z,82.57
2019-01-16T11:09:48.318Z,82.89
2019-01-16T11:10:48.327Z,82.47
2019-01-16T11:11:48.281Z,82.78
2019-01-16T11:12:48.281Z,82.68
2019-01-16T11:13:48.258Z,82.98
2019-01-16T11:14:48.298Z,82.89
2019-01-16T11:15:48.239Z,82.57
2019-01-16T11:16:48.222Z,82.89
2019-01-16T11:17:48.209Z,82.68
2019-01-16T11:18:48.202Z,82.47
2019-01-16T11:19:48.279Z,81.96
2019-01-16T11:20:48.187Z,82.57
2019-01-16T11:21:48.171Z,82.47
2019-01-16T11:22:48.153Z,82.47
2019-01-16T11:23:48.204Z,82.06
2019-01-16T11:24:48.151Z,82.06
2019-01-16T11:25:48.149Z,81.92
2019-01-16T11:26:48.139Z,81.71
2019-01-16T11:27:48.150Z,81.71
2019-01-16T11:28:48.096Z,81.61
2019-01-16T11:29:48.098Z,81.40
2019-01-16T11:30:48.123Z,81.51
2019-01-16T11:31:48.075Z,81.20
2019-01-16T11:32:48.081Z,81.20
2019-01-16T11:33:48.030Z,81.09
2019-01-16T11:34:48.091Z,80.89
2019-01-16T11:35:48.039Z,81.20
2019-01-16T11:36:48.010Z,80.99
2019-01-16T11:37:48.014Z,80.89
2019-01-16T11:38:48.015Z,80.89
2019-01-16T11:39:47.980Z,80.79
2019-01-16T11:40:47.957Z,80.68
2019-01-16T11:41:47.972Z,80.79
2019-01-16T11:42:47.970Z,81.40
2019-01-16T11:43:47.977Z,80.75
2019-01-16T11:44:47.931Z,80.79
2019-01-16T11:45:47.940Z,80.65
2019-01-16T11:46:47.900Z,80.44
2019-01-16T11:47:47.938Z,80.13
2019-01-16T11:48:47.871Z,80.02
2019-01-16T11:49:47.857Z,80.33
2019-01-16T11:50:47.868Z,80.33
2019-01-16T11:51:47.838Z,80.37
2019-01-16T11:52:47.841Z,79.82
2019-01-16T11:53:47.848Z,79.82
2019-01-16T11:54:47.817Z,80.54
2019-01-16T11:55:47.799Z,79.93
2019-01-16T11:56:47.790Z,79.72
2019-01-16T11:57:47.772Z,79.79
2019-01-16T11:58:47.768Z,79.72
2019-01-16T11:59:47.771Z,79.06
2019-01-16T12:00:47.775Z,79.37
2019-01-16T12:01:47.726Z,79.47
2019-01-16T12:02:47.713Z,78.96
2019-01-16T12:03:47.719Z,78.65
2019-01-16T12:04:48.766Z,78.75
2019-01-16T12:05:47.723Z,78.89
2019-01-16T12:06:47.675Z,78.55
2019-01-16T12:07:47.665Z,79.06
2019-01-16T12:08:47.659Z,78.44
2019-01-16T12:09:47.657Z,78.65
2019-01-16T12:10:47.674Z,78.65
2019-01-16T12:11:47.637Z,78.75
2019-01-16T12:12:47.613Z,78.75
2019-01-16T12:13:47.616Z,78.86
2019-01-16T12:14:47.592Z,79.27
2019-01-16T12:15:47.615Z,78.65
2019-01-16T12:16:47.560Z,78.24
2019-01-16T12:17:47.551Z,78.34
2019-01-16T12:18:47.542Z,78.86
2019-01-16T12:19:47.553Z,78.89
2019-01-16T12:20:47.542Z,78.86
2019-01-16T12:21:47.552Z,78.89
2019-01-16T12:22:47.506Z,79.27
2019-01-16T12:23:47.493Z,79.00
2019-01-16T12:24:47.501Z,78.96
2019-01-16T12:25:47.472Z,78.34
2019-01-16T12:26:47.460Z,78.86
2019-01-16T12:27:47.462Z,79.27
2019-01-16T12:28:47.438Z,79.06
2019-01-16T12:29:47.425Z,78.65
2019-01-16T12:30:47.414Z,78.14
2019-01-16T12:31:47.422Z,78.24
2019-01-16T12:32:47.435Z,77.72
2019-01-16T12:33:47.384Z,77.72
2019-01-16T12:34:47.383Z,79.16
2019-01-16T12:35:47.359Z,78.65
2019-01-16T12:36:47.357Z,78.24
2019-01-16T12:37:47.349Z,79.06
2019-01-16T12:38:47.343Z,78.44
2019-01-16T12:39:47.325Z,78.86
2019-01-16T12:40:47.303Z,78.44
2019-01-16T12:41:47.296Z,78.44
2019-01-16T12:42:47.288Z,78.65
2019-01-16T12:43:47.287Z,78.55
2019-01-16T12:44:47.278Z,78.34
2019-01-16T12:45:47.245Z,78.34
2019-01-16T12:46:47.237Z,78.96
2019-01-16T12:47:53.827Z,79.00
2019-01-16T12:48:47.223Z,78.86
2019-01-16T12:49:47.205Z,79.30
2019-01-16T12:50:47.263Z,79.30
2019-01-16T12:51:47.202Z,79.20
2019-01-16T12:52:53.926Z,78.69
2019-01-16T12:53:48.196Z,79.30
2019-01-16T12:54:47.153Z,78.69
2019-01-16T12:55:47.132Z,78.79